This is the latest recevied weather packets stored in our database for station/object DB0TV-13. If no packets are shown the sender has not sent any weather packets the latest 10 day(s).
| Time | Temp. | Humidity | Pressure | Rain* | Wind** | Luminosity | Snow |
|---|---|---|---|---|---|---|---|
| 1777927218 | 12.78° C | 95% | 1012.8 hPa | 0.25 mm | - | 0 W/m² | - |
| 1777926618 | 12.22° C | 95% | 1012.7 hPa | 0.25 mm | - | 0 W/m² | - |
| 1777926019 | 12.22° C | 95% | 1012.7 hPa | 0.25 mm | - | 0 W/m² | - |
| 1777925418 | 12.22° C | 95% | 1012.6 hPa | 0.25 mm | - | 0 W/m² | - |
| 1777924818 | 12.22° C | 95% | 1012.6 hPa | 0.25 mm | - | 0 W/m² | - |
| 1777924218 | 12.22° C | 95% | 1012.5 hPa | 0.25 mm | - | 0 W/m² | - |
| 1777923618 | 12.22° C | 95% | 1012.5 hPa | 0 mm | - | 0 W/m² | - |
| 1777923018 | 12.78° C | 95% | 1012.4 hPa | 0 mm | - | 0 W/m² | - |
| 1777922418 | 12.78° C | 95% | 1012.4 hPa | 0 mm | - | 0 W/m² | - |
| 1777921819 | 12.78° C | 95% | 1012.4 hPa | 0 mm | - | 0 W/m² | - |
| 1777921218 | 12.78° C | 95% | 1012.3 hPa | 0 mm | - | 0 W/m² | - |
| 1777920618 | 12.78° C | 95% | 1012.3 hPa | 0 mm | - | 0 W/m² | - |
| 1777920018 | 12.78° C | 95% | 1012.3 hPa | 0.25 mm | - | 8 W/m² | - |
| 1777919418 | 12.78° C | 94% | 1012.3 hPa | 0.51 mm | - | 12 W/m² | - |
| 1777918818 | 12.78° C | 94% | 1012.2 hPa | 0.51 mm | - | 15 W/m² | - |
| 1777918218 | 12.78° C | 94% | 1012.3 hPa | 0.51 mm | - | 16 W/m² | - |
| 1777917618 | 12.78° C | 94% | 1012.3 hPa | 0.51 mm | - | 21 W/m² | - |
| 1777917018 | 12.78° C | 94% | 1012.4 hPa | 0.51 mm | - | 21 W/m² | - |
| 1777916418 | 12.78° C | 94% | 1012.4 hPa | 0.51 mm | - | 24 W/m² | - |
| 1777915818 | 12.78° C | 94% | 1012.4 hPa | 0.76 mm | - | 23 W/m² | - |
| 1777915220 | 12.78° C | 93% | 1012.5 hPa | 2.54 mm | - | 31 W/m² | - |
| 1777914618 | 12.78° C | 94% | 1012.6 hPa | 6.1 mm | - | 41 W/m² | - |
| 1777914018 | 12.78° C | 93% | 1012.7 hPa | 6.1 mm | - | 42 W/m² | - |
| 1777913418 | 12.78° C | 93% | 1012.8 hPa | 6.1 mm | - | 38 W/m² | - |
| 1777912820 | 13.33° C | 92% | 1012.9 hPa | 5.84 mm | - | 40 W/m² | - |
* Rain latest hour (hover to see other rain measurements)
** Current wind speed in m/s (hover to see current wind gust speed)